Terminal Aerodrome Forecast
Issued by NWS Denver/Boulder, CO

Home | Current Version | Previous Version | Text Only | Print | Product List | Glossary On
Versions: 1 2 3 4 5 6 7 8 9 10 11 12 13 14 15 16 17 18 19 20 21 22 23 24 25 26 27 28 29 30 31 32 33 34 35 36 37 38 39 40 41 42 43 44 45 46
000
FTUS45 KBOU 251857 AAA
TAFDEN
TAF AMD
KDEN 251857Z 2519/2624 03015KT P6SM FEW090 SCT140 BKN220
     FM252000 32015G22KT P6SM VCSH SCT070 BKN120
      TEMPO 2520/2524 VRB25G40KT -TSRA BKN060CB
     FM260200 05011KT P6SM VCSH SCT060 BKN080
     FM260600 18007KT P6SM SCT060 BKN080
     FM261200 23006KT P6SM SCT030 BKN080
      TEMPO 2612/2615 BKN030
     FM261800 10013KT P6SM SCT050 BKN100
      TEMPO 2620/2624 3SM TSRAGS BKN050CB=

USA.gov is the U.S. government's official web portal to all federal, state and local government web resources and services.